Time;durP1;ratioP1;P1;durP2;ratioP2;P2;SDS_P1;SDS_P2;PMS_P1;PMS_P2;Temp;Humidity;BMP_temperature;BMP_pressure;BME280_temperature;BME280_humidity;BME280_pressure;Samples;Min_cycle;Max_cycle;Signal;HPM_P1;HPM_P2
2024/01/27 00:00:09;;;;;;;31.60;4.50;;;4.90;99.90;;;;;;5092819;28;20051;-76
2024/01/27 00:02:35;;;;;;;28.63;5.78;;;4.90;99.90;;;;;;5074120;28;20050;-87
2024/01/27 00:05:02;;;;;;;35.70;6.22;;;4.90;99.90;;;;;;5075053;28;20048;-77
2024/01/27 00:07:28;;;;;;;29.67;4.45;;;4.90;99.90;;;;;;5092819;28;20518;-77
2024/01/27 00:09:59;;;;;;;20.73;4.63;;;4.90;99.90;;;;;;5092692;28;20135;-78
2024/01/27 00:12:24;;;;;;;36.35;4.70;;;4.90;99.90;;;;;;5092695;28;20052;-81
2024/01/27 00:14:50;;;;;;;30.67;5.28;;;4.90;99.90;;;;;;5057704;28;20059;-77
2024/01/27 00:17:16;;;;;;;37.83;5.00;;;4.90;99.90;;;;;;5092449;28;20044;-80
2024/01/27 00:19:42;;;;;;;26.90;4.43;;;4.90;99.90;;;;;;5074388;28;20400;-88
2024/01/27 00:22:07;;;;;;;23.77;5.05;;;4.90;99.90;;;;;;5092952;28;20044;-83
2024/01/27 00:24:33;;;;;;;30.13;4.40;;;4.90;99.90;;;;;;5093019;28;20198;-77
2024/01/27 00:27:00;;;;;;;29.25;6.32;;;4.90;99.90;;;;;;5092233;28;20097;-86
2024/01/27 00:29:26;;;;;;;29.35;5.10;;;4.90;99.90;;;;;;5092323;28;20044;-82
2024/01/27 00:31:54;;;;;;;24.23;4.85;;;4.90;99.90;;;;;;5092157;28;20872;-87
2024/01/27 00:34:20;;;;;;;29.52;4.53;;;4.80;99.90;;;;;;5092256;28;20419;-86
2024/01/27 00:36:48;;;;;;;26.92;4.68;;;4.80;99.90;;;;;;5073675;28;20043;-85
2024/01/27 00:39:18;;;;;;;34.22;4.50;;;4.90;99.90;;;;;;5092005;28;20052;-87
2024/01/27 00:41:44;;;;;;;38.15;5.35;;;4.90;99.90;;;;;;5091933;28;20051;-87
2024/01/27 00:44:10;;;;;;;30.52;4.78;;;4.80;99.90;;;;;;5092191;28;20518;-85
2024/01/27 00:46:37;;;;;;;31.98;4.45;;;4.80;99.90;;;;;;5091881;28;20051;-78
2024/01/27 00:49:03;;;;;;;31.48;4.35;;;4.80;99.90;;;;;;5091756;28;20118;-83
2024/01/27 00:51:28;;;;;;;25.02;4.38;;;4.90;99.90;;;;;;5091890;28;20059;-77
2024/01/27 00:53:54;;;;;;;28.10;5.88;;;4.90;99.90;;;;;;5091703;28;20048;-77
2024/01/27 00:56:20;;;;;;;58.00;5.22;;;4.90;99.90;;;;;;5091725;28;20127;-86
2024/01/27 00:58:46;;;;;;;25.35;4.18;;;5.00;99.90;;;;;;5091916;28;20079;-81
2024/01/27 01:01:11;;;;;;;38.38;5.88;;;5.00;99.90;;;;;;5091370;28;20392;-86
2024/01/27 01:03:37;;;;;;;30.85;6.15;;;5.00;99.90;;;;;;5073570;28;20055;-81
2024/01/27 01:06:03;;;;;;;39.35;5.82;;;4.90;99.90;;;;;;5091917;28;20094;-88
2024/01/27 01:08:29;;;;;;;26.23;5.82;;;4.90;99.90;;;;;;5091091;28;20043;-86
2024/01/27 01:10:54;;;;;;;22.67;4.53;;;4.80;99.90;;;;;;5091983;28;20134;-81
2024/01/27 01:13:20;;;;;;;24.48;4.65;;;4.80;99.90;;;;;;5056733;28;20047;-82
2024/01/27 01:15:46;;;;;;;32.80;6.32;;;4.70;99.90;;;;;;5091649;28;20059;-80
2024/01/27 01:18:12;;;;;;;30.77;5.47;;;4.70;99.90;;;;;;5073222;28;20056;-86
2024/01/27 01:20:38;;;;;;;46.03;7.25;;;4.70;99.90;;;;;;5091718;28;20087;-76
2024/01/27 01:23:03;;;;;;;33.53;6.45;;;4.60;99.90;;;;;;5091326;28;20093;-82
2024/01/27 01:25:29;;;;;;;27.55;5.65;;;4.60;99.90;;;;;;5091689;28;20059;-81
2024/01/27 01:27:55;;;;;;;29.40;5.43;;;4.50;99.90;;;;;;5090936;28;20467;-86
2024/01/27 01:30:21;;;;;;;35.85;5.63;;;4.50;99.90;;;;;;5091190;28;20134;-83
2024/01/27 01:32:46;;;;;;;28.95;4.05;;;4.50;99.90;;;;;;5073321;28;20048;-80
2024/01/27 01:35:12;;;;;;;26.83;4.50;;;4.40;99.90;;;;;;5091659;28;20062;-87
2024/01/27 01:37:39;;;;;;;33.35;8.02;;;4.40;99.90;;;;;;5091027;28;20048;-79
2024/01/27 01:40:07;;;;;;;39.03;4.78;;;4.40;99.90;;;;;;5091499;28;20048;-80
2024/01/27 01:42:32;;;;;;;27.60;4.72;;;4.40;99.90;;;;;;5091051;28;20044;-83
2024/01/27 01:44:58;;;;;;;25.63;4.20;;;4.30;99.90;;;;;;5091072;28;20040;-81
2024/01/27 01:47:24;;;;;;;36.90;5.47;;;4.30;99.90;;;;;;5072869;28;20399;-82
2024/01/27 01:49:50;;;;;;;29.23;4.63;;;4.30;99.90;;;;;;5091253;28;20408;-79
2024/01/27 01:52:21;;;;;;;34.92;5.00;;;4.40;99.90;;;;;;5091148;28;20106;-83
2024/01/27 01:54:50;;;;;;;32.67;5.45;;;4.40;99.90;;;;;;5091659;28;20109;-83
2024/01/27 01:57:16;;;;;;;28.02;4.63;;;4.40;99.90;;;;;;5091806;28;20126;-80
2024/01/27 01:59:42;;;;;;;37.85;5.50;;;4.40;99.90;;;;;;5091153;28;20040;-83
2024/01/27 02:02:09;;;;;;;24.90;4.78;;;4.40;99.90;;;;;;5073207;28;20063;-84
2024/01/27 02:04:43;;;;;;;37.42;4.95;;;4.40;99.90;;;;;;5059842;28;20457;-88
2024/01/27 02:07:09;;;;;;;30.23;6.78;;;4.40;99.90;;;;;;5060417;28;20091;-82
2024/01/27 02:09:35;;;;;;;27.95;5.28;;;4.40;99.90;;;;;;5060263;28;20049;-83
2024/01/27 02:12:01;;;;;;;26.38;4.30;;;4.40;99.90;;;;;;5076621;28;20526;-81
2024/01/27 02:14:27;;;;;;;33.65;5.72;;;4.40;99.90;;;;;;5095119;28;20089;-88
2024/01/27 02:16:57;;;;;;;36.17;5.55;;;4.30;99.90;;;;;;5060107;28;20047;-81
2024/01/27 02:19:23;;;;;;;33.20;5.70;;;4.30;99.90;;;;;;5077060;28;20136;-85
2024/01/27 02:21:49;;;;;;;34.13;5.75;;;4.30;99.90;;;;;;5095861;28;20052;-83
2024/01/27 02:24:14;;;;;;;37.22;5.03;;;4.30;99.90;;;;;;5076468;28;20052;-87
2024/01/27 02:26:40;;;;;;;27.08;4.20;;;4.30;99.90;;;;;;5094983;28;20396;-82
2024/01/27 02:29:06;;;;;;;28.23;5.35;;;4.40;99.90;;;;;;5094542;28;20134;-79
2024/01/27 02:31:31;;;;;;;32.03;6.55;;;4.40;99.90;;;;;;5094690;28;20198;-84
2024/01/27 02:33:57;;;;;;;27.33;5.40;;;4.40;99.90;;;;;;5094320;28;20082;-79
2024/01/27 02:36:23;;;;;;;23.05;4.45;;;4.40;99.90;;;;;;5076244;28;20105;-75
2024/01/27 02:38:48;;;;;;;28.48;6.03;;;4.40;99.90;;;;;;5076091;28;20416;-78
2024/01/27 02:41:14;;;;;;;23.48;5.57;;;4.30;99.90;;;;;;5094164;28;20059;-80
2024/01/27 02:43:40;;;;;;;40.65;6.53;;;4.30;99.90;;;;;;5094625;28;20044;-80
2024/01/27 02:46:09;;;;;;;32.55;4.82;;;4.30;99.90;;;;;;5096499;28;20476;-83
2024/01/27 02:48:34;;;;;;;33.00;4.53;;;4.20;99.90;;;;;;5094370;28;20385;-82
2024/01/27 02:51:02;;;;;;;25.40;4.63;;;4.20;99.90;;;;;;5094531;28;20058;-81
2024/01/27 02:53:28;;;;;;;27.88;5.13;;;4.20;99.90;;;;;;5094337;28;20090;-83
2024/01/27 02:55:54;;;;;;;28.40;4.05;;;4.20;99.90;;;;;;5094748;28;20079;-86
2024/01/27 02:58:19;;;;;;;32.35;5.20;;;4.20;99.90;;;;;;5094220;28;20566;-79
2024/01/27 03:00:45;;;;;;;27.15;4.28;;;4.20;99.90;;;;;;5079646;28;20127;-76
2024/01/27 03:03:11;;;;;;;24.50;4.10;;;4.10;99.90;;;;;;5082646;28;20055;-75
2024/01/27 03:05:36;;;;;;;47.38;5.93;;;4.10;99.90;;;;;;5080013;28;20063;-81
2024/01/27 03:08:02;;;;;;;27.77;5.05;;;4.10;99.90;;;;;;5097840;28;20048;-75
2024/01/27 03:10:29;;;;;;;32.13;5.93;;;4.10;99.90;;;;;;5063860;28;20052;-81
2024/01/27 03:12:54;;;;;;;33.25;6.00;;;4.10;99.90;;;;;;5098746;28;20056;-82
2024/01/27 03:15:20;;;;;;;31.55;5.18;;;4.10;99.90;;;;;;5075092;28;20385;-82
2024/01/27 03:17:46;;;;;;;26.25;4.03;;;4.00;99.90;;;;;;5093970;28;20039;-87
2024/01/27 03:20:11;;;;;;;19.55;4.38;;;4.00;99.90;;;;;;5094018;28;20403;-87
2024/01/27 03:22:37;;;;;;;18.67;3.97;;;4.00;99.90;;;;;;5059134;28;20048;-79
2024/01/27 03:25:03;;;;;;;32.25;4.88;;;4.00;99.90;;;;;;5075675;28;20157;-80
2024/01/27 03:27:29;;;;;;;34.92;5.60;;;4.00;99.90;;;;;;5075757;28;20128;-82
2024/01/27 03:29:58;;;;;;;21.27;4.30;;;4.00;99.90;;;;;;5074922;28;20060;-81
2024/01/27 03:32:24;;;;;;;26.58;5.20;;;4.00;99.90;;;;;;5093195;28;20085;-85
2024/01/27 03:34:49;;;;;;;28.38;4.80;;;4.00;99.90;;;;;;5093348;28;20131;-84
2024/01/27 03:37:15;;;;;;;19.23;4.40;;;4.00;99.90;;;;;;5093480;28;20051;-85
2024/01/27 03:39:44;;;;;;;25.83;4.07;;;3.90;99.90;;;;;;5093154;28;20480;-87
2024/01/27 03:42:09;;;;;;;22.33;4.15;;;3.90;99.90;;;;;;5074951;28;20056;-82
2024/01/27 03:44:35;;;;;;;29.60;4.85;;;3.90;99.90;;;;;;5093201;28;20048;-88
2024/01/27 03:47:01;;;;;;;35.47;4.68;;;3.90;99.90;;;;;;5076562;28;20048;-81
2024/01/27 03:49:26;;;;;;;29.02;5.32;;;4.00;99.90;;;;;;5094056;28;20047;-84
2024/01/27 03:51:52;;;;;;;23.50;4.03;;;4.00;99.90;;;;;;5075307;28;20055;-83
2024/01/27 03:54:18;;;;;;;22.63;4.18;;;4.00;99.90;;;;;;5093226;28;20050;-87
2024/01/27 03:56:43;;;;;;;30.35;4.88;;;4.10;99.90;;;;;;5074598;28;20056;-84
2024/01/27 03:59:10;;;;;;;31.98;4.40;;;4.10;99.90;;;;;;5092419;28;20052;-87
2024/01/27 04:01:36;;;;;;;24.88;3.92;;;4.00;99.90;;;;;;5074390;28;20393;-85
2024/01/27 04:04:02;;;;;;;21.58;4.60;;;4.00;99.90;;;;;;5092523;28;20096;-85
2024/01/27 04:06:27;;;;;;;25.83;3.75;;;3.90;99.90;;;;;;5092283;28;20411;-86
2024/01/27 04:08:53;;;;;;;26.65;5.40;;;3.90;99.90;;;;;;5093662;28;20117;-87
2024/01/27 04:11:21;;;;;;;24.13;4.60;;;3.80;99.90;;;;;;5074933;28;20131;-78
2024/01/27 04:13:48;;;;;;;25.67;4.32;;;3.80;99.90;;;;;;5092830;28;20044;-83
2024/01/27 04:16:13;;;;;;;18.92;3.75;;;3.70;99.90;;;;;;5074227;28;20404;-84
2024/01/27 04:18:39;;;;;;;25.35;5.05;;;3.70;99.90;;;;;;5075170;28;20059;-81
2024/01/27 04:21:05;;;;;;;24.30;3.60;;;3.70;99.90;;;;;;5093088;28;20051;-86
2024/01/27 04:23:32;;;;;;;25.35;3.85;;;3.60;99.90;;;;;;5092831;28;20036;-83
2024/01/27 04:25:58;;;;;;;26.35;5.72;;;3.60;99.90;;;;;;5073871;28;20052;-81
2024/01/27 04:28:23;;;;;;;21.67;4.75;;;3.60;99.90;;;;;;5093463;28;20391;-87
2024/01/27 04:30:49;;;;;;;27.55;3.72;;;3.60;99.90;;;;;;5093143;28;20052;-88
2024/01/27 04:33:15;;;;;;;21.98;3.33;;;3.50;99.90;;;;;;5093010;28;20442;-87
2024/01/27 04:35:41;;;;;;;34.90;5.50;;;3.50;99.90;;;;;;5057772;28;20050;-79
2024/01/27 04:38:08;;;;;;;29.45;5.07;;;3.50;99.90;;;;;;5092574;28;20044;-86
2024/01/27 04:40:35;;;;;;;23.63;3.95;;;3.50;99.90;;;;;;5092852;28;20044;-82
2024/01/27 04:43:01;;;;;;;28.95;5.43;;;3.40;99.90;;;;;;5092540;28;20368;-85
2024/01/27 04:45:27;;;;;;;21.35;4.78;;;3.40;99.90;;;;;;5074020;28;20062;-82
2024/01/27 04:47:53;;;;;;;23.85;4.03;;;3.40;99.90;;;;;;5091964;28;20055;-84
2024/01/27 04:50:20;;;;;;;30.60;3.83;;;3.40;99.90;;;;;;5092433;28;20067;-87
2024/01/27 04:52:45;;;;;;;31.23;4.80;;;3.40;99.90;;;;;;5074406;28;20051;-85
2024/01/27 04:55:12;;;;;;;43.33;4.85;;;3.40;99.90;;;;;;5091774;28;20048;-87
2024/01/27 04:57:38;;;;;;;24.42;4.40;;;3.40;99.90;;;;;;5073602;28;20044;-76
2024/01/27 05:00:07;;;;;;;26.80;3.90;;;3.40;99.90;;;;;;5091743;28;20378;-87
2024/01/27 05:02:33;;;;;;;19.83;3.28;;;3.50;99.90;;;;;;5091350;28;20040;-83
2024/01/27 05:04:59;;;;;;;24.58;3.70;;;3.40;99.90;;;;;;5092052;28;20091;-85
2024/01/27 05:07:25;;;;;;;20.30;4.35;;;3.40;99.90;;;;;;5074061;28;20568;-82
2024/01/27 05:09:50;;;;;;;25.70;3.28;;;3.30;99.90;;;;;;5091687;28;20494;-85
2024/01/27 05:12:16;;;;;;;33.63;4.57;;;3.30;99.90;;;;;;5091642;28;20047;-81
2024/01/27 05:14:45;;;;;;;29.80;3.67;;;3.30;99.90;;;;;;5092526;28;20043;-78
2024/01/27 05:17:11;;;;;;;27.85;4.00;;;3.30;99.90;;;;;;5091577;28;20055;-83
2024/01/27 05:19:36;;;;;;;28.73;6.28;;;3.30;99.90;;;;;;5091411;28;20052;-87
2024/01/27 05:22:02;;;;;;;27.58;4.63;;;3.30;99.90;;;;;;5091577;28;20131;-84
2024/01/27 05:24:28;;;;;;;22.30;4.07;;;3.20;99.90;;;;;;5091293;28;20105;-87
2024/01/27 05:26:54;;;;;;;26.75;5.63;;;3.20;99.90;;;;;;5072955;28;20419;-83
2024/01/27 05:29:19;;;;;;;19.17;3.42;;;3.20;99.90;;;;;;5091354;28;20052;-84
2024/01/27 05:31:45;;;;;;;34.10;4.85;;;3.20;99.90;;;;;;5091221;28;20381;-82
2024/01/27 05:34:11;;;;;;;27.55;4.68;;;3.20;99.90;;;;;;5073272;28;20048;-85
2024/01/27 05:36:37;;;;;;;22.05;4.63;;;3.20;99.90;;;;;;5091390;28;20071;-86
2024/01/27 05:39:04;;;;;;;19.10;3.97;;;3.20;99.90;;;;;;5056313;28;20090;-85
2024/01/27 05:41:30;;;;;;;31.33;5.68;;;3.20;99.90;;;;;;5091015;28;20091;-82
2024/01/27 05:43:59;;;;;;;21.83;4.45;;;3.20;99.90;;;;;;5091128;28;20079;-80
2024/01/27 05:46:25;;;;;;;34.15;4.90;;;3.20;99.90;;;;;;5056143;28;20052;-84
2024/01/27 05:48:53;;;;;;;30.05;4.03;;;3.20;99.90;;;;;;5072972;28;20122;-81
2024/01/27 05:51:19;;;;;;;27.08;4.18;;;3.20;99.90;;;;;;5072795;28;20090;-80
2024/01/27 05:53:46;;;;;;;26.75;4.63;;;3.20;99.90;;;;;;5072884;28;20369;-83
2024/01/27 05:56:11;;;;;;;38.15;5.22;;;3.20;99.90;;;;;;5091017;28;20404;-83
2024/01/27 05:58:37;;;;;;;36.10;6.68;;;3.20;99.90;;;;;;5091093;28;20052;-82
2024/01/27 06:01:03;;;;;;;23.65;5.05;;;3.20;99.90;;;;;;5072971;28;20059;-82
2024/01/27 06:03:29;;;;;;;23.25;4.50;;;3.20;99.90;;;;;;5090759;28;20052;-84
2024/01/27 06:05:56;;;;;;;23.95;4.03;;;3.10;99.90;;;;;;5056181;28;20044;-85
2024/01/27 06:08:22;;;;;;;21.67;4.40;;;3.20;99.90;;;;;;5039307;28;20044;-81
2024/01/27 06:10:48;;;;;;;19.30;3.50;;;3.20;99.90;;;;;;5091163;28;20048;-79
2024/01/27 06:13:13;;;;;;;26.88;4.25;;;3.20;99.90;;;;;;5073037;28;20092;-83
2024/01/27 06:15:39;;;;;;;23.67;5.25;;;3.20;99.90;;;;;;5056553;28;20131;-83
2024/01/27 06:18:05;;;;;;;29.70;5.78;;;3.20;99.90;;;;;;5072989;28;20051;-85
2024/01/27 06:20:31;;;;;;;25.00;4.05;;;3.20;99.90;;;;;;5055648;28;20052;-86
2024/01/27 06:22:57;;;;;;;19.17;3.80;;;3.10;99.90;;;;;;5090773;28;20048;-80
2024/01/27 06:25:23;;;;;;;16.58;3.70;;;3.20;99.90;;;;;;5090883;28;20094;-82
2024/01/27 06:27:49;;;;;;;25.02;4.68;;;3.10;99.90;;;;;;5072788;28;20098;-84
2024/01/27 06:30:15;;;;;;;29.20;5.85;;;3.10;99.90;;;;;;5072289;28;20095;-83
2024/01/27 06:32:42;;;;;;;20.02;4.32;;;3.10;99.90;;;;;;5072988;28;20086;-81
2024/01/27 06:35:08;;;;;;;28.88;3.38;;;3.20;99.90;;;;;;5090735;28;20048;-82
2024/01/27 06:37:35;;;;;;;23.92;3.40;;;3.20;99.90;;;;;;5090826;28;20052;-87
2024/01/27 06:40:01;;;;;;;24.15;4.35;;;3.20;99.90;;;;;;5056864;28;20109;-83
2024/01/27 06:42:26;;;;;;;23.10;5.30;;;3.20;99.90;;;;;;5091379;28;20400;-84
2024/01/27 06:44:52;;;;;;;26.25;5.05;;;3.20;99.90;;;;;;5071849;28;20055;-82
2024/01/27 06:47:18;;;;;;;27.95;5.25;;;3.20;99.90;;;;;;5056007;28;20078;-83
2024/01/27 06:49:43;;;;;;;27.10;4.60;;;3.10;99.90;;;;;;5091711;28;20152;-80
2024/01/27 06:52:09;;;;;;;26.90;4.65;;;3.10;99.90;;;;;;5076384;28;20093;-84
2024/01/27 06:54:36;;;;;;;24.30;4.05;;;3.10;99.90;;;;;;5094105;28;20529;-85
2024/01/27 06:57:02;;;;;;;32.03;5.43;;;3.10;99.90;;;;;;5094199;28;20083;-86
2024/01/27 06:59:28;;;;;;;21.55;3.35;;;3.10;99.90;;;;;;5076260;28;20044;-81
2024/01/27 07:01:53;;;;;;;22.40;4.30;;;3.10;99.90;;;;;;5094000;28;20108;-84
2024/01/27 07:04:23;;;;;;;15.63;3.50;;;3.10;99.90;;;;;;5093406;28;20145;-81
2024/01/27 07:06:49;;;;;;;22.48;3.10;;;3.00;99.90;;;;;;5075783;28;20048;-78
2024/01/27 07:09:14;;;;;;;18.25;3.60;;;3.00;99.90;;;;;;5094357;28;20056;-83
2024/01/27 07:11:40;;;;;;;27.40;3.97;;;3.00;99.90;;;;;;5075857;28;20551;-86
2024/01/27 07:14:09;;;;;;;26.80;3.65;;;3.00;99.90;;;;;;5075503;28;20044;-84
2024/01/27 07:16:34;;;;;;;18.33;4.13;;;3.00;99.90;;;;;;5075671;28;20488;-83
2024/01/27 07:19:00;;;;;;;21.95;3.03;;;3.00;99.90;;;;;;5076150;28;20047;-76
2024/01/27 07:21:28;;;;;;;28.52;6.07;;;3.00;99.90;;;;;;5093687;28;20385;-86
2024/01/27 07:23:54;;;;;;;24.33;4.47;;;3.00;99.90;;;;;;5093850;28;20052;-81
2024/01/27 07:26:20;;;;;;;15.27;3.08;;;3.00;99.90;;;;;;5095810;28;20120;-81
2024/01/27 07:28:45;;;;;;;24.60;4.95;;;3.00;99.90;;;;;;5076597;28;20515;-83
2024/01/27 07:31:12;;;;;;;23.23;3.95;;;2.90;99.90;;;;;;5076998;28;20040;-83
2024/01/27 07:33:38;;;;;;;20.85;3.53;;;3.00;99.90;;;;;;5077119;28;20048;-87
2024/01/27 07:36:04;;;;;;;18.17;3.25;;;3.00;99.90;;;;;;5095785;28;20165;-83
2024/01/27 07:38:30;;;;;;;22.00;3.90;;;3.00;99.90;;;;;;5096722;28;20051;-84
2024/01/27 07:40:56;;;;;;;25.20;4.18;;;3.00;99.90;;;;;;5097477;28;20047;-76
2024/01/27 07:43:21;;;;;;;28.30;3.75;;;3.00;99.90;;;;;;5097692;28;20127;-83
2024/01/27 07:45:47;;;;;;;34.28;5.40;;;3.00;99.90;;;;;;5063156;28;20127;-82
2024/01/27 07:48:13;;;;;;;28.20;5.38;;;3.00;99.90;;;;;;5064187;28;20072;-87
2024/01/27 07:50:38;;;;;;;15.32;3.88;;;3.00;99.90;;;;;;5085573;28;20052;-88
2024/01/27 07:53:05;;;;;;;28.50;5.20;;;3.10;99.90;;;;;;5082507;28;20052;-83
2024/01/27 07:55:31;;;;;;;24.08;4.05;;;3.10;99.90;;;;;;5086139;28;20047;-85
2024/01/27 07:57:58;;;;;;;16.70;3.40;;;3.10;99.90;;;;;;5103231;28;20052;-81
2024/01/27 08:00:23;;;;;;;21.20;3.95;;;3.10;99.90;;;;;;5102983;28;20044;-83
2024/01/27 08:02:49;;;;;;;19.58;4.25;;;3.10;99.90;;;;;;5097867;28;20159;-86
2024/01/27 08:05:15;;;;;;;29.50;4.82;;;3.10;99.90;;;;;;5063188;28;20074;-82
2024/01/27 08:07:41;;;;;;;22.83;4.43;;;3.10;99.90;;;;;;5080307;28;20036;-83
2024/01/27 08:10:10;;;;;;;25.73;4.50;;;3.10;99.90;;;;;;5081938;28;20056;-83
2024/01/27 08:12:36;;;;;;;26.10;4.15;;;3.10;99.90;;;;;;5094601;28;20501;-88
2024/01/27 08:15:02;;;;;;;32.83;3.97;;;3.20;99.90;;;;;;5075281;28;20138;-86
2024/01/27 08:17:28;;;;;;;24.25;5.95;;;3.20;99.90;;;;;;5093254;28;20042;-87
2024/01/27 08:19:53;;;;;;;22.02;5.20;;;3.30;99.90;;;;;;5096305;28;20056;-86
2024/01/27 08:22:19;;;;;;;18.52;4.20;;;3.30;99.90;;;;;;5092733;28;20109;-84
2024/01/27 08:24:45;;;;;;;21.10;3.85;;;3.40;99.90;;;;;;5057845;28;20055;-88
2024/01/27 08:27:10;;;;;;;27.10;3.60;;;3.40;99.90;;;;;;5094069;28;20127;-86
2024/01/27 08:29:36;;;;;;;29.50;6.03;;;3.50;99.90;;;;;;5092509;28;20075;-87
2024/01/27 08:32:02;;;;;;;30.90;4.68;;;3.50;99.90;;;;;;5092561;28;20048;-87
2024/01/27 08:34:28;;;;;;;30.05;5.55;;;3.50;99.90;;;;;;5074205;28;20093;-84
2024/01/27 08:36:53;;;;;;;28.50;4.22;;;3.60;99.90;;;;;;5040807;28;20056;-87
2024/01/27 08:39:19;;;;;;;29.02;5.55;;;3.60;99.90;;;;;;5094202;28;20121;-86
2024/01/27 08:41:45;;;;;;;25.42;4.63;;;3.70;99.90;;;;;;5092587;28;20089;-87
2024/01/27 08:44:11;;;;;;;39.33;6.15;;;3.70;99.90;;;;;;5092327;28;20052;-85
2024/01/27 08:46:37;;;;;;;30.40;5.75;;;3.80;99.90;;;;;;5092639;28;20475;-86
2024/01/27 08:49:02;;;;;;;22.70;4.88;;;3.80;99.90;;;;;;5092298;28;20070;-87
2024/01/27 08:51:28;;;;;;;32.53;4.20;;;3.90;99.90;;;;;;5092052;28;20048;-77
2024/01/27 08:53:54;;;;;;;18.83;4.07;;;3.90;99.90;;;;;;5057800;28;20479;-79
2024/01/27 08:56:20;;;;;;;21.13;5.90;;;4.00;99.90;;;;;;5057183;28;20075;-86
2024/01/27 08:58:47;;;;;;;18.52;3.70;;;4.10;99.90;;;;;;5093147;28;20051;-85
2024/01/27 09:01:14;;;;;;;25.42;4.93;;;4.20;99.90;;;;;;5091860;28;20090;-84
2024/01/27 09:03:40;;;;;;;21.80;4.57;;;4.20;99.90;;;;;;5091013;28;20103;-84
2024/01/27 09:06:07;;;;;;;34.75;5.38;;;4.30;99.90;;;;;;5091668;28;20044;-84
2024/01/27 09:08:34;;;;;;;15.70;3.88;;;4.40;99.90;;;;;;5073605;28;20116;-85
2024/01/27 09:11:01;;;;;;;21.60;5.10;;;4.40;99.90;;;;;;5091503;28;20075;-82
2024/01/27 09:13:26;;;;;;;19.33;3.85;;;4.50;99.90;;;;;;5091145;28;20079;-84
2024/01/27 09:15:52;;;;;;;28.55;5.90;;;4.60;99.90;;;;;;5091571;28;20082;-83
2024/01/27 09:18:18;;;;;;;22.90;3.47;;;4.60;99.90;;;;;;5091589;28;20151;-85
2024/01/27 09:20:43;;;;;;;21.15;4.53;;;4.70;99.90;;;;;;5092051;28;20048;-84
2024/01/27 09:23:09;;;;;;;22.83;4.78;;;4.80;99.90;;;;;;5091714;28;20404;-81
2024/01/27 09:25:35;;;;;;;15.65;3.10;;;4.90;99.90;;;;;;5072906;28;20139;-82
2024/01/27 09:28:01;;;;;;;23.20;3.60;;;4.90;99.90;;;;;;5072732;28;20048;-83
2024/01/27 09:30:27;;;;;;;18.15;3.53;;;5.00;99.90;;;;;;5090968;28;20140;-84
2024/01/27 09:32:53;;;;;;;25.38;3.85;;;5.10;99.90;;;;;;5073523;28;20056;-82
2024/01/27 09:35:20;;;;;;;18.85;4.05;;;5.20;99.90;;;;;;5091213;28;20054;-81
2024/01/27 09:37:46;;;;;;;21.45;4.13;;;5.30;99.90;;;;;;5091682;28;20121;-78
2024/01/27 09:40:12;;;;;;;26.27;4.35;;;5.30;99.90;;;;;;5091100;28;20052;-74
2024/01/27 09:42:41;;;;;;;25.58;4.90;;;5.40;99.90;;;;;;5090802;28;20109;-85
2024/01/27 09:45:09;;;;;;;20.17;3.92;;;5.50;99.90;;;;;;5073118;28;20484;-79
2024/01/27 09:47:36;;;;;;;17.48;3.58;;;5.50;99.90;;;;;;5090527;28;20550;-83
2024/01/27 09:50:02;;;;;;;17.30;3.38;;;5.60;99.90;;;;;;5090952;28;20067;-84
2024/01/27 09:52:28;;;;;;;17.23;3.83;;;5.60;99.90;;;;;;5073097;28;20419;-87
2024/01/27 09:54:53;;;;;;;18.65;4.15;;;5.70;99.90;;;;;;5090987;28;20052;-84
2024/01/27 09:57:20;;;;;;;26.52;4.60;;;5.70;99.90;;;;;;5073240;28;20056;-84
2024/01/27 09:59:49;;;;;;;25.13;4.88;;;5.80;99.90;;;;;;5091061;28;20078;-85
2024/01/27 10:02:17;;;;;;;20.98;6.13;;;5.90;99.90;;;;;;5091284;28;20423;-84
2024/01/27 10:04:45;;;;;;;22.90;5.57;;;6.00;99.90;;;;;;5090168;28;20377;-82
2024/01/27 10:07:11;;;;;;;20.42;5.63;;;6.10;99.90;;;;;;5091160;28;20412;-80
2024/01/27 10:09:37;;;;;;;14.60;3.83;;;6.20;99.90;;;;;;5072797;28;20044;-85
2024/01/27 10:12:03;;;;;;;18.50;4.60;;;6.30;99.90;;;;;;5090935;28;20629;-77
2024/01/27 10:14:39;;;;;;;19.08;4.53;;;6.30;99.90;;;;;;5091603;28;20173;-83
2024/01/27 10:17:08;;;;;;;20.60;4.45;;;6.40;99.90;;;;;;5090989;28;20082;-82
2024/01/27 10:19:34;;;;;;;21.63;4.15;;;6.50;99.90;;;;;;5090576;28;20067;-86
2024/01/27 10:22:02;;;;;;;21.30;4.72;;;6.60;99.90;;;;;;5090946;28;20047;-86
2024/01/27 10:24:28;;;;;;;24.42;4.40;;;6.70;99.90;;;;;;5073844;28;20047;-86
2024/01/27 10:27:01;;;;;;;18.83;3.88;;;6.80;99.90;;;;;;5060065;28;20517;-84
2024/01/27 10:29:27;;;;;;;23.42;3.95;;;6.90;99.90;;;;;;5094548;28;20116;-85
2024/01/27 10:31:53;;;;;;;20.88;3.92;;;7.10;99.90;;;;;;5094741;28;20055;-84
2024/01/27 10:34:22;;;;;;;18.83;4.13;;;7.30;99.90;;;;;;5094497;28;20052;-80
2024/01/27 10:36:47;;;;;;;30.20;4.85;;;7.40;99.90;;;;;;5094343;28;20044;-86
2024/01/27 10:39:23;;;;;;;38.15;5.40;;;7.50;99.90;;;;;;5077255;28;20104;-82
2024/01/27 10:41:50;;;;;;;27.30;5.82;;;7.60;99.90;;;;;;5094140;28;20055;-86
2024/01/27 10:44:20;;;;;;;21.00;3.97;;;7.60;99.90;;;;;;5094421;28;20052;-86
2024/01/27 10:46:47;;;;;;;21.48;4.55;;;7.80;99.90;;;;;;5075784;28;20528;-85
2024/01/27 10:49:17;;;;;;;28.02;4.28;;;8.00;99.90;;;;;;5094663;28;20052;-85
2024/01/27 10:51:49;;;;;;;21.45;3.63;;;8.20;99.90;;;;;;5094561;28;20055;-87
2024/01/27 10:54:22;;;;;;;19.80;4.75;;;8.30;99.90;;;;;;5075871;28;20091;-88
2024/01/27 10:56:50;;;;;;;19.88;4.80;;;8.30;99.90;;;;;;5094747;28;20488;-85
2024/01/27 10:59:21;;;;;;;28.60;5.13;;;8.40;99.90;;;;;;5095913;28;20056;-88
2024/01/27 11:01:50;;;;;;;17.65;3.80;;;8.50;99.90;;;;;;5094452;28;20052;-89
2024/01/27 11:04:16;;;;;;;19.33;3.35;;;8.50;99.90;;;;;;5093530;28;20048;-89
2024/01/27 11:06:42;;;;;;;17.27;3.35;;;8.90;99.90;;;;;;5094325;28;20048;-89
2024/01/27 11:09:11;;;;;;;22.65;3.55;;;9.20;99.90;;;;;;5075965;28;20055;-87
2024/01/27 11:11:37;;;;;;;18.65;4.22;;;9.40;99.90;;;;;;5093836;28;20048;-86
2024/01/27 11:14:03;;;;;;;27.98;4.50;;;9.60;99.90;;;;;;5094850;28;20052;-82
2024/01/27 11:16:29;;;;;;;19.02;4.18;;;9.30;99.90;;;;;;5075036;28;20419;-88
2024/01/27 11:18:55;;;;;;;22.88;4.28;;;9.30;99.90;;;;;;5058440;28;20434;-82
2024/01/27 11:21:20;;;;;;;20.80;4.15;;;9.40;99.90;;;;;;5076624;28;20048;-88
2024/01/27 11:23:47;;;;;;;15.27;4.18;;;9.40;99.90;;;;;;5094352;28;20079;-86
2024/01/27 11:26:19;;;;;;;24.55;3.95;;;9.50;99.90;;;;;;5094724;28;20151;-82
2024/01/27 11:28:45;;;;;;;29.42;4.15;;;9.80;99.90;;;;;;5094359;28;20098;-87
2024/01/27 11:31:11;;;;;;;21.50;3.53;;;9.70;99.90;;;;;;5075744;28;20079;-77
2024/01/27 11:33:44;;;;;;;20.48;3.60;;;10.10;99.90;;;;;;5094974;28;20097;-85
2024/01/27 11:36:22;;;;;;;20.70;4.10;;;9.90;99.90;;;;;;5058940;28;20056;-77
2024/01/27 11:38:49;;;;;;;20.80;3.92;;;9.80;99.90;;;;;;5093389;28;20094;-78
2024/01/27 11:41:30;;;;;;;31.48;5.97;;;9.90;99.90;;;;;;5093367;28;20385;-82
2024/01/27 11:43:57;;;;;;;30.80;4.10;;;10.00;99.90;;;;;;5075383;28;20059;-78
2024/01/27 11:46:23;;;;;;;27.20;4.60;;;10.10;99.90;;;;;;5075677;28;20052;-80
2024/01/27 11:48:49;;;;;;;15.25;3.45;;;10.10;99.90;;;;;;5093893;28;20120;-82
2024/01/27 11:51:15;;;;;;;23.40;4.55;;;10.10;99.90;;;;;;5093605;28;20056;-86
2024/01/27 11:53:40;;;;;;;18.70;4.75;;;10.30;99.90;;;;;;5093625;28;20088;-87
2024/01/27 11:56:07;;;;;;;20.15;3.50;;;10.50;99.90;;;;;;5075334;28;20056;-88
2024/01/27 11:58:33;;;;;;;23.77;3.47;;;11.00;99.90;;;;;;5092919;28;20506;-86
2024/01/27 12:00:59;;;;;;;25.42;4.35;;;11.20;99.90;;;;;;5074895;28;20052;-83
2024/01/27 12:03:25;;;;;;;25.98;4.28;;;11.40;99.90;;;;;;5092709;28;20866;-77
2024/01/27 12:05:51;;;;;;;19.58;3.55;;;11.90;99.90;;;;;;5093065;28;20127;-81
2024/01/27 12:08:17;;;;;;;21.42;4.88;;;12.40;99.90;;;;;;5074715;28;20062;-75
2024/01/27 12:10:43;;;;;;;17.05;3.13;;;12.80;99.90;;;;;;5092859;28;20500;-78
2024/01/27 12:13:09;;;;;;;16.27;3.47;;;12.50;99.90;;;;;;5092962;28;20040;-86
2024/01/27 12:15:35;;;;;;;21.92;3.70;;;13.00;99.90;;;;;;5074708;28;20093;-83
2024/01/27 12:18:01;;;;;;;18.48;3.08;;;13.00;99.90;;;;;;5093139;28;20051;-87
2024/01/27 12:20:27;;;;;;;20.77;3.53;;;13.50;99.90;;;;;;5093192;28;20059;-77
2024/01/27 12:23:08;;;;;;;13.57;3.10;;;13.40;99.90;;;;;;5074866;28;20044;-76
2024/01/27 12:25:34;;;;;;;18.35;3.47;;;12.90;99.90;;;;;;5074283;28;20504;-81
2024/01/27 12:28:03;;;;;;;12.32;3.22;;;13.30;99.90;;;;;;5074857;28;20056;-88
2024/01/27 12:30:31;;;;;;;14.32;3.35;;;13.80;99.90;;;;;;5092682;28;20062;-84
2024/01/27 12:32:57;;;;;;;20.65;3.95;;;13.90;99.90;;;;;;5094223;28;20048;-88
2024/01/27 12:35:23;;;;;;;26.55;3.97;;;14.00;99.90;;;;;;5080909;28;20097;-89
2024/01/27 12:37:49;;;;;;;31.00;4.55;;;13.70;99.90;;;;;;5100393;28;20051;-90
2024/01/27 12:40:20;;;;;;;20.20;4.68;;;13.70;99.90;;;;;;5079772;28;20470;-79